TKJ1DJ LTFJ-LTBJ
Flight info
| Callsign | TKJ1DJ |
|---|---|
| Flight time | 0h 43m |
| Altitude | 28000 |
| Route | ROXUK1J/06L ROXUK T409 NUMTI DCT KULAR |
| Aircraft | B38M/M-SDE1FGHILORVWXY/HB1 |
Departure
| Time | 2026-05-04 15:53 |
|---|---|
| Airport | Istanbul Sabiha Gökçen International Airport (LTFJ) |
Arrival
| Time | 2026-05-04 16:37 |
|---|---|
| Airport | Adnan Menderes International Airport (LTBJ) |
| Time | Latitude | Longitude | Altitude | Speed | Heading |
|---|---|---|---|---|---|
| 2026-05-04 14:59 | 40.90401 | 29.31098 | 322 ft | 0 kts | 335° |
| 2026-05-04 15:43 | 40.90393 | 29.31103 | 323 ft | 4 kts | 334° |
| 2026-05-04 15:44 | 40.90369 | 29.31121 | 323 ft | 4 kts | 321° |
| 2026-05-04 15:44 | 40.90353 | 29.31146 | 319 ft | 4 kts | 289° |
| 2026-05-04 15:44 | 40.90353 | 29.31174 | 322 ft | 1 kts | 244° |
| 2026-05-04 15:44 | 40.90353 | 29.31175 | 322 ft | 1 kts | 244° |
| 2026-05-04 15:47 | 40.90348 | 29.31161 | 320 ft | 5 kts | 244° |
| 2026-05-04 15:47 | 40.90317 | 29.31077 | 321 ft | 16 kts | 244° |
| 2026-05-04 15:48 | 40.90269 | 29.30947 | 322 ft | 15 kts | 244° |
| 2026-05-04 15:48 | 40.90204 | 29.30880 | 323 ft | 12 kts | 168° |
| 2026-05-04 15:48 | 40.90039 | 29.30849 | 321 ft | 17 kts | 245° |
| 2026-05-04 15:49 | 40.89975 | 29.30675 | 323 ft | 25 kts | 244° |
| 2026-05-04 15:49 | 40.89904 | 29.30481 | 322 ft | 21 kts | 244° |
| 2026-05-04 15:49 | 40.89836 | 29.30294 | 323 ft | 23 kts | 244° |
| 2026-05-04 15:49 | 40.89762 | 29.30091 | 322 ft | 26 kts | 244° |
| 2026-05-04 15:50 | 40.89690 | 29.29899 | 322 ft | 25 kts | 244° |
| 2026-05-04 15:50 | 40.89614 | 29.29691 | 322 ft | 25 kts | 244° |
| 2026-05-04 15:50 | 40.89541 | 29.29494 | 323 ft | 24 kts | 244° |
| 2026-05-04 15:50 | 40.89474 | 29.29312 | 322 ft | 16 kts | 241° |
| 2026-05-04 15:51 | 40.89409 | 29.29253 | 323 ft | 7 kts | 185° |
| 2026-05-04 15:51 | 40.89368 | 29.29268 | 321 ft | 0 kts | 154° |
| 2026-05-04 15:51 | 40.89360 | 29.29273 | 322 ft | 3 kts | 154° |
| 2026-05-04 15:51 | 40.89332 | 29.29291 | 323 ft | 6 kts | 154° |
| 2026-05-04 15:52 | 40.89296 | 29.29315 | 323 ft | 5 kts | 152° |
| 2026-05-04 15:52 | 40.89282 | 29.29343 | 324 ft | 2 kts | 99° |
| 2026-05-04 15:52 | 40.89289 | 29.29380 | 322 ft | 0 kts | 64° |
| 2026-05-04 15:52 | 40.89316 | 29.29453 | 323 ft | 38 kts | 64° |
| 2026-05-04 15:53 | 40.89559 | 29.30116 | 322 ft | 119 kts | 64° |
| 2026-05-04 15:53 | 40.90011 | 29.31342 | 578 ft | 162 kts | 62° |
| 2026-05-04 15:53 | 40.90547 | 29.32736 | 1415 ft | 175 kts | 60° |
| 2026-05-04 15:53 | 40.91131 | 29.34216 | 2296 ft | 186 kts | 58° |
| 2026-05-04 15:54 | 40.91712 | 29.35760 | 3156 ft | 199 kts | 58° |
| 2026-05-04 15:54 | 40.92338 | 29.37529 | 3847 ft | 224 kts | 58° |
| 2026-05-04 15:54 | 40.92961 | 29.39532 | 4721 ft | 247 kts | 72° |
| 2026-05-04 15:54 | 40.92867 | 29.41919 | 5621 ft | 279 kts | 104° |
| 2026-05-04 15:55 | 40.91723 | 29.44096 | 6377 ft | 299 kts | 137° |
| 2026-05-04 15:55 | 40.89868 | 29.45379 | 6610 ft | 304 kts | 159° |
| 2026-05-04 15:55 | 40.87918 | 29.46462 | 6790 ft | 306 kts | 154° |
| 2026-05-04 15:55 | 40.85985 | 29.47639 | 7696 ft | 302 kts | 153° |
| 2026-05-04 15:56 | 40.84087 | 29.48814 | 8976 ft | 300 kts | 152° |
| 2026-05-04 15:56 | 40.82217 | 29.49985 | 10124 ft | 302 kts | 152° |
| 2026-05-04 15:56 | 40.80277 | 29.51211 | 10860 ft | 318 kts | 151° |
| 2026-05-04 15:56 | 40.78221 | 29.52520 | 11387 ft | 338 kts | 149° |
| 2026-05-04 15:57 | 40.76348 | 29.54437 | 11951 ft | 345 kts | 126° |
| 2026-05-04 15:57 | 40.74849 | 29.56987 | 12607 ft | 356 kts | 122° |
| 2026-05-04 15:57 | 40.73321 | 29.59621 | 13322 ft | 366 kts | 122° |
| 2026-05-04 15:57 | 40.71768 | 29.62316 | 14146 ft | 371 kts | 122° |
| 2026-05-04 15:58 | 40.70192 | 29.65028 | 14917 ft | 376 kts | 125° |
| 2026-05-04 15:58 | 40.68179 | 29.67304 | 15736 ft | 389 kts | 145° |
| 2026-05-04 15:58 | 40.65664 | 29.68602 | 16525 ft | 400 kts | 166° |
| 2026-05-04 15:58 | 40.62862 | 29.68803 | 17263 ft | 407 kts | 180° |
| 2026-05-04 15:59 | 40.60010 | 29.68740 | 17970 ft | 412 kts | 178° |
| 2026-05-04 15:59 | 40.57132 | 29.68721 | 18639 ft | 415 kts | 178° |
| 2026-05-04 15:59 | 40.54233 | 29.68709 | 19257 ft | 419 kts | 178° |
| 2026-05-04 15:59 | 40.51291 | 29.68700 | 19872 ft | 423 kts | 178° |
| 2026-05-04 16:00 | 40.48337 | 29.68692 | 20448 ft | 427 kts | 178° |
| 2026-05-04 16:00 | 40.45368 | 29.68684 | 21045 ft | 431 kts | 178° |
| 2026-05-04 16:00 | 40.42355 | 29.68676 | 21612 ft | 434 kts | 178° |
| 2026-05-04 16:00 | 40.39319 | 29.68668 | 22220 ft | 438 kts | 178° |
| 2026-05-04 16:01 | 40.36259 | 29.68660 | 22797 ft | 442 kts | 178° |
| 2026-05-04 16:01 | 40.33170 | 29.68653 | 23370 ft | 445 kts | 178° |
| 2026-05-04 16:01 | 40.30053 | 29.68646 | 23835 ft | 450 kts | 178° |
| 2026-05-04 16:01 | 40.26904 | 29.68638 | 24003 ft | 453 kts | 178° |
| 2026-05-04 16:02 | 40.23761 | 29.68629 | 24050 ft | 452 kts | 178° |
| 2026-05-04 16:02 | 40.20617 | 29.68621 | 24056 ft | 452 kts | 178° |
| 2026-05-04 16:02 | 40.14399 | 29.69063 | 24054 ft | 449 kts | 172° |
| 2026-05-04 16:03 | 40.11281 | 29.69435 | 24044 ft | 449 kts | 173° |
| 2026-05-04 16:03 | 40.08163 | 29.69785 | 24062 ft | 451 kts | 173° |
| 2026-05-04 16:03 | 40.05034 | 29.70124 | 24517 ft | 451 kts | 173° |
| 2026-05-04 16:03 | 40.01887 | 29.70461 | 24953 ft | 456 kts | 173° |
| 2026-05-04 16:04 | 39.98716 | 29.70798 | 25419 ft | 458 kts | 173° |
| 2026-05-04 16:04 | 39.92295 | 29.71427 | 26270 ft | 467 kts | 178° |
| 2026-05-04 16:04 | 39.89058 | 29.70926 | 26721 ft | 473 kts | 194° |
| 2026-05-04 16:05 | 39.86005 | 29.69326 | 27139 ft | 477 kts | 209° |
| 2026-05-04 16:05 | 39.83115 | 29.67147 | 27514 ft | 481 kts | 211° |
| 2026-05-04 16:05 | 39.77324 | 29.62699 | 28356 ft | 486 kts | 211° |
| 2026-05-04 16:06 | 39.74412 | 29.60434 | 28726 ft | 490 kts | 211° |
| 2026-05-04 16:06 | 39.66572 | 29.54330 | 29743 ft | 498 kts | 211° |
| 2026-05-04 16:07 | 39.62643 | 29.51079 | 29999 ft | 504 kts | 214° |
| 2026-05-04 16:08 | 39.50903 | 29.41009 | 30036 ft | 508 kts | 214° |
| 2026-05-04 16:09 | 39.36325 | 29.28618 | 30035 ft | 500 kts | 214° |
| 2026-05-04 16:10 | 39.24725 | 29.18803 | 30049 ft | 498 kts | 214° |
| 2026-05-04 16:11 | 39.13180 | 29.09073 | 30049 ft | 495 kts | 214° |
| 2026-05-04 16:12 | 38.96830 | 28.95361 | 30022 ft | 495 kts | 214° |
| 2026-05-04 16:13 | 38.85192 | 28.85648 | 30065 ft | 499 kts | 214° |
| 2026-05-04 16:14 | 38.73602 | 28.76011 | 30059 ft | 497 kts | 214° |
| 2026-05-04 16:16 | 38.59626 | 28.63334 | 30044 ft | 486 kts | 234° |
| 2026-05-04 16:16 | 38.55834 | 28.51710 | 30039 ft | 475 kts | 258° |
| 2026-05-04 16:17 | 38.54044 | 28.43594 | 30042 ft | 472 kts | 259° |
| 2026-05-04 16:18 | 38.50572 | 28.27423 | 30048 ft | 475 kts | 260° |
| 2026-05-04 16:19 | 38.48798 | 28.14961 | 27775 ft | 483 kts | 264° |
| 2026-05-04 16:19 | 38.47587 | 28.06562 | 25648 ft | 485 kts | 264° |
| 2026-05-04 16:20 | 38.45804 | 27.94312 | 24523 ft | 449 kts | 264° |
| 2026-05-04 16:20 | 38.44681 | 27.86638 | 23811 ft | 431 kts | 264° |
| 2026-05-04 16:21 | 38.43063 | 27.75653 | 21874 ft | 413 kts | 265° |
| 2026-05-04 16:22 | 38.42009 | 27.68535 | 20590 ft | 404 kts | 265° |
| 2026-05-04 16:22 | 38.40468 | 27.58183 | 18767 ft | 391 kts | 265° |
| 2026-05-04 16:23 | 38.38961 | 27.48134 | 16810 ft | 377 kts | 265° |
| 2026-05-04 16:24 | 38.37035 | 27.35365 | 14272 ft | 361 kts | 265° |
| 2026-05-04 16:25 | 38.36093 | 27.29153 | 13041 ft | 356 kts | 264° |
| 2026-05-04 16:26 | 38.29685 | 27.20975 | 10400 ft | 369 kts | 177° |
| 2026-05-04 16:26 | 38.22304 | 27.23121 | 8351 ft | 354 kts | 165° |
| 2026-05-04 16:27 | 38.17617 | 27.24643 | 7055 ft | 340 kts | 165° |
| 2026-05-04 16:28 | 38.11162 | 27.26744 | 6009 ft | 301 kts | 165° |
| 2026-05-04 16:28 | 38.05354 | 27.28578 | 4948 ft | 278 kts | 165° |
| 2026-05-04 16:29 | 38.00777 | 27.24049 | 3996 ft | 228 kts | 291° |
| 2026-05-04 16:30 | 38.04023 | 27.21689 | 4066 ft | 196 kts | 7° |
| 2026-05-04 16:31 | 38.06697 | 27.22583 | 3990 ft | 201 kts | 15° |
| 2026-05-04 16:31 | 38.10443 | 27.21532 | 3908 ft | 184 kts | 339° |
| 2026-05-04 16:32 | 38.13986 | 27.20308 | 3208 ft | 171 kts | 348° |
| 2026-05-04 16:33 | 38.16216 | 27.19635 | 2762 ft | 154 kts | 348° |
| 2026-05-04 16:33 | 38.18237 | 27.19025 | 2376 ft | 148 kts | 348° |
| 2026-05-04 16:34 | 38.20225 | 27.18425 | 1979 ft | 146 kts | 348° |
| 2026-05-04 16:34 | 38.21181 | 27.18136 | 1788 ft | 131 kts | 349° |
| 2026-05-04 16:35 | 38.23748 | 27.17362 | 1272 ft | 127 kts | 347° |
| 2026-05-04 16:35 | 38.26401 | 27.16558 | 696 ft | 126 kts | 345° |
| 2026-05-04 16:36 | 38.27263 | 27.16300 | 557 ft | 132 kts | 343° |
| 2026-05-04 16:36 | 38.28858 | 27.15815 | 415 ft | 70 kts | 346° |
| 2026-05-04 16:37 | 38.29374 | 27.15655 | 417 ft | 15 kts | 347° |
| 2026-05-04 16:37 | 38.29423 | 27.15597 | 416 ft | 9 kts | 266° |
| 2026-05-04 16:37 | 38.29419 | 27.15570 | 416 ft | 3 kts | 258° |
| 2026-05-04 16:38 | 38.29368 | 27.15298 | 414 ft | 19 kts | 257° |
| 2026-05-04 16:39 | 38.29546 | 27.15069 | 413 ft | 23 kts | 346° |
| 2026-05-04 16:39 | 38.29723 | 27.15016 | 412 ft | 3 kts | 346° |
| 2026-05-04 16:40 | 38.29757 | 27.15026 | 414 ft | 2 kts | 52° |
| 2026-05-04 16:40 | 38.29772 | 27.15086 | 411 ft | 3 kts | 75° |
| 2026-05-04 16:41 | 38.29773 | 27.15091 | 411 ft | 0 kts | 75° |